Time;durP1;ratioP1;P1;durP2;ratioP2;P2;SDS_P1;SDS_P2;PMS_P1;PMS_P2;Temp;Humidity;BMP_temperature;BMP_pressure;BME280_temperature;BME280_humidity;BME280_pressure;Samples;Min_cycle;Max_cycle;Signal;HPM_P1;HPM_P2
2021/05/31 00:02:01;;;;;;;7.63;4.63;;;12.30;99.90;;;;;;4988408;28;20108;-71
2021/05/31 00:04:30;;;;;;;6.85;4.43;;;12.30;99.90;;;;;;4990993;28;20451;-71
2021/05/31 00:07:02;;;;;;;6.80;4.45;;;12.20;99.90;;;;;;4992229;28;20472;-71
2021/05/31 00:09:31;;;;;;;7.05;4.00;;;12.20;99.90;;;;;;4984415;28;20430;-71
2021/05/31 00:11:56;;;;;;;7.40;4.20;;;12.20;99.90;;;;;;4980702;28;20096;-71
2021/05/31 00:14:22;;;;;;;6.53;4.35;;;12.10;99.90;;;;;;4995228;28;20606;-71
2021/05/31 00:16:50;;;;;;;6.90;4.20;;;12.10;99.90;;;;;;4991721;28;20088;-73
2021/05/31 00:19:15;;;;;;;6.05;3.67;;;12.10;99.90;;;;;;4993103;28;20030;-73
2021/05/31 00:21:45;;;;;;;8.02;4.10;;;12.10;99.30;;;;;;4990308;28;20054;-73
2021/05/31 00:24:16;;;;;;;6.22;4.45;;;12.00;99.40;;;;;;4994471;28;20033;-73
2021/05/31 00:26:42;;;;;;;6.90;4.60;;;12.00;99.90;;;;;;4995746;28;20034;-73
2021/05/31 00:29:09;;;;;;;6.00;4.10;;;12.00;99.90;;;;;;4990130;28;20434;-71
2021/05/31 00:31:35;;;;;;;6.10;4.15;;;11.90;99.90;;;;;;4989433;28;20038;-71
2021/05/31 00:34:05;;;;;;;7.50;4.18;;;11.90;99.90;;;;;;4991788;28;20035;-71
2021/05/31 00:36:31;;;;;;;7.35;4.43;;;11.80;99.90;;;;;;4993377;28;20049;-71
2021/05/31 00:38:59;;;;;;;6.25;4.20;;;11.90;99.90;;;;;;4988789;28;20038;-71
2021/05/31 00:41:29;;;;;;;6.43;3.97;;;11.80;99.90;;;;;;4990573;28;20025;-72
2021/05/31 00:43:57;;;;;;;5.95;4.10;;;11.80;99.90;;;;;;4987974;28;20041;-72
2021/05/31 00:46:27;;;;;;;6.22;4.30;;;11.80;99.90;;;;;;4993095;28;20448;-71
2021/05/31 00:48:55;;;;;;;5.63;3.97;;;11.80;99.90;;;;;;4993980;28;20041;-71
2021/05/31 00:51:20;;;;;;;7.85;4.40;;;11.70;99.90;;;;;;4990724;28;20027;-71
2021/05/31 00:53:48;;;;;;;6.15;4.20;;;11.70;99.90;;;;;;4981314;28;20376;-71
2021/05/31 00:56:14;;;;;;;5.88;4.20;;;11.70;99.90;;;;;;4996412;28;20491;-71
2021/05/31 00:58:40;;;;;;;6.22;4.47;;;11.70;99.90;;;;;;4978017;28;20017;-71
2021/05/31 01:01:06;;;;;;;6.28;4.30;;;11.70;99.90;;;;;;4992160;28;20022;-71
2021/05/31 01:03:32;;;;;;;6.50;4.40;;;11.70;99.90;;;;;;4981028;28;20049;-72
2021/05/31 01:06:01;;;;;;;6.15;3.83;;;11.60;99.90;;;;;;4996037;28;20034;-71
2021/05/31 01:08:58;;;;;;;5.85;4.03;;;11.60;99.90;;;;;;4991122;28;20112;-72
2021/05/31 01:11:51;;;;;;;7.68;4.00;;;11.60;99.90;;;;;;4980952;28;21876;-72
2021/05/31 01:14:33;;;;;;;7.43;4.40;;;11.50;99.90;;;;;;4997312;28;20371;-71
2021/05/31 01:17:04;;;;;;;5.88;4.10;;;11.50;99.90;;;;;;4969258;28;20022;-71
2021/05/31 01:19:33;;;;;;;5.97;3.97;;;11.50;99.90;;;;;;4995247;28;20066;-71
2021/05/31 01:22:03;;;;;;;7.18;4.20;;;11.50;99.90;;;;;;4996048;28;20038;-72
2021/05/31 01:24:47;;;;;;;6.00;4.28;;;11.50;99.90;;;;;;4998208;28;20461;-71
2021/05/31 01:27:22;;;;;;;5.93;4.20;;;11.40;99.90;;;;;;4996074;28;21545;-72
2021/05/31 01:30:00;;;;;;;6.20;4.22;;;11.40;99.90;;;;;;4997688;28;20027;-72
2021/05/31 01:32:35;;;;;;;7.57;4.07;;;11.40;99.90;;;;;;5000215;28;20050;-72
2021/05/31 01:35:06;;;;;;;6.38;4.20;;;11.40;99.90;;;;;;4998411;28;20026;-71
2021/05/31 01:37:34;;;;;;;5.43;3.88;;;11.30;99.90;;;;;;4997113;28;20070;-71
2021/05/31 01:40:05;;;;;;;6.75;3.72;;;11.30;99.90;;;;;;4973812;28;20403;-71
2021/05/31 01:42:33;;;;;;;6.53;4.35;;;11.30;99.90;;;;;;4982805;28;20049;-72
2021/05/31 01:45:01;;;;;;;6.38;4.15;;;11.30;99.90;;;;;;4981167;28;20125;-73
2021/05/31 01:47:29;;;;;;;7.68;4.22;;;11.20;99.90;;;;;;4999793;28;20026;-71
2021/05/31 01:49:55;;;;;;;7.10;4.20;;;11.20;99.90;;;;;;4992059;28;20042;-71
2021/05/31 01:52:26;;;;;;;5.70;4.18;;;11.20;99.90;;;;;;4991216;28;20438;-71
2021/05/31 01:54:56;;;;;;;6.07;3.90;;;11.20;99.90;;;;;;4985234;28;20034;-71
2021/05/31 01:57:24;;;;;;;7.57;4.13;;;11.20;99.90;;;;;;4994635;28;20117;-71
2021/05/31 01:59:50;;;;;;;6.90;4.00;;;11.10;99.90;;;;;;4981975;28;20121;-71
2021/05/31 02:02:16;;;;;;;7.07;4.50;;;11.10;99.90;;;;;;4997248;28;20100;-71
2021/05/31 02:04:41;;;;;;;5.97;3.85;;;11.10;99.90;;;;;;4996515;28;20028;-71
2021/05/31 02:07:07;;;;;;;5.78;3.90;;;11.10;99.90;;;;;;5001281;28;20026;-71
2021/05/31 02:09:33;;;;;;;5.15;3.63;;;11.10;99.90;;;;;;4996053;28;20030;-71
2021/05/31 02:12:06;;;;;;;6.68;4.35;;;11.10;99.90;;;;;;4992859;28;20022;-72
2021/05/31 02:14:54;;;;;;;6.68;3.92;;;11.00;99.90;;;;;;4996904;28;20096;-71
2021/05/31 02:17:32;;;;;;;5.57;3.80;;;11.00;99.90;;;;;;4991488;28;20407;-71
2021/05/31 02:20:10;;;;;;;6.63;4.40;;;11.00;99.90;;;;;;4997138;28;20041;-72
2021/05/31 02:22:39;;;;;;;5.68;4.00;;;11.00;99.90;;;;;;4993648;28;20081;-71
2021/05/31 02:25:05;;;;;;;6.28;4.63;;;11.00;99.90;;;;;;4995899;28;20034;-71
2021/05/31 02:27:33;;;;;;;8.35;4.40;;;11.00;99.90;;;;;;4997630;28;20065;-71
2021/05/31 02:30:02;;;;;;;6.60;4.28;;;10.90;99.90;;;;;;4994358;28;20030;-71
2021/05/31 02:32:28;;;;;;;5.70;3.90;;;10.90;99.90;;;;;;4995304;28;20087;-71
2021/05/31 02:34:57;;;;;;;6.30;4.03;;;10.90;99.90;;;;;;4983208;28;20034;-71
2021/05/31 02:37:34;;;;;;;6.32;3.88;;;10.80;99.90;;;;;;4997024;28;20369;-71
2021/05/31 02:40:05;;;;;;;8.43;4.20;;;10.80;99.90;;;;;;4994824;28;20363;-71
2021/05/31 02:42:50;;;;;;;6.03;4.03;;;10.80;99.90;;;;;;4992189;28;20025;-71
2021/05/31 02:45:17;;;;;;;6.75;4.07;;;10.80;99.90;;;;;;4992795;28;20021;-72
2021/05/31 02:47:43;;;;;;;7.35;4.10;;;10.80;99.90;;;;;;4994421;28;20391;-71
2021/05/31 02:50:09;;;;;;;6.15;3.90;;;10.70;99.90;;;;;;4993727;28;20026;-72
2021/05/31 02:52:39;;;;;;;6.32;4.00;;;10.70;99.90;;;;;;5008983;28;20039;-72
2021/05/31 02:55:16;;;;;;;6.60;4.10;;;10.70;99.90;;;;;;4994597;28;20036;-72
2021/05/31 02:57:41;;;;;;;5.60;4.05;;;10.70;99.90;;;;;;4994210;28;20033;-72
2021/05/31 03:00:09;;;;;;;6.20;3.80;;;10.60;99.90;;;;;;4994865;28;20460;-71
2021/05/31 03:02:35;;;;;;;7.10;4.25;;;10.60;99.90;;;;;;4991365;28;20108;-72
2021/05/31 03:05:07;;;;;;;5.55;3.63;;;10.60;99.90;;;;;;4991033;28;20395;-71
2021/05/31 03:07:32;;;;;;;6.20;4.03;;;10.60;99.90;;;;;;4989590;28;20085;-72
2021/05/31 03:10:01;;;;;;;6.20;4.07;;;10.60;99.90;;;;;;4978920;28;20894;-72
2021/05/31 03:12:30;;;;;;;6.95;4.10;;;10.40;99.90;;;;;;4993117;28;20044;-72
2021/05/31 03:14:58;;;;;;;7.00;3.78;;;10.50;99.90;;;;;;4998463;28;20030;-72
2021/05/31 03:17:23;;;;;;;5.78;3.95;;;10.50;99.90;;;;;;4992603;28;20026;-72
2021/05/31 03:19:49;;;;;;;5.47;3.85;;;10.50;99.90;;;;;;4990084;28;20463;-72
2021/05/31 03:22:15;;;;;;;6.00;4.05;;;10.50;99.90;;;;;;4993562;28;20035;-72
2021/05/31 03:24:40;;;;;;;5.50;3.75;;;10.40;99.90;;;;;;4990488;28;20486;-72
2021/05/31 03:27:11;;;;;;;10.15;4.60;;;10.40;99.90;;;;;;4980906;28;20512;-73
2021/05/31 03:29:43;;;;;;;7.53;4.45;;;10.40;99.90;;;;;;4996721;28;20711;-72
2021/05/31 03:32:09;;;;;;;6.35;3.70;;;10.40;99.90;;;;;;4989737;28;20473;-72
2021/05/31 03:34:37;;;;;;;6.70;3.58;;;10.40;99.90;;;;;;4996048;28;20056;-72
2021/05/31 03:37:03;;;;;;;6.85;4.22;;;10.40;99.90;;;;;;5006709;28;20080;-72
2021/05/31 03:39:32;;;;;;;6.13;3.88;;;10.40;99.90;;;;;;4975020;28;20083;-72
2021/05/31 03:41:59;;;;;;;5.95;4.03;;;10.40;99.90;;;;;;4992262;28;20109;-72
2021/05/31 03:44:27;;;;;;;6.22;3.92;;;10.30;99.90;;;;;;4999009;28;20029;-72
2021/05/31 03:46:55;;;;;;;6.78;3.80;;;10.30;99.90;;;;;;4994813;28;20472;-72
2021/05/31 03:49:21;;;;;;;5.75;3.88;;;10.30;99.90;;;;;;4993471;28;20614;-72
2021/05/31 03:51:48;;;;;;;6.78;4.30;;;10.30;99.90;;;;;;4991444;28;20141;-72
2021/05/31 03:54:16;;;;;;;6.07;4.00;;;10.30;99.90;;;;;;4989995;28;20034;-71
2021/05/31 03:56:42;;;;;;;6.25;4.00;;;10.30;99.90;;;;;;4994691;28;20053;-72
2021/05/31 03:59:08;;;;;;;7.65;3.95;;;10.30;99.90;;;;;;4979647;28;20125;-72
2021/05/31 04:01:36;;;;;;;5.40;3.75;;;10.20;99.90;;;;;;4990298;28;21575;-71
2021/05/31 04:04:02;;;;;;;6.25;3.60;;;10.20;99.90;;;;;;4989690;28;20053;-72
2021/05/31 04:11:45;;;;;;;6.40;3.63;;;10.20;99.90;;;;;;4976211;28;20050;-71
2021/05/31 04:14:15;;;;;;;6.95;4.10;;;10.20;99.90;;;;;;4975552;28;20030;-71
2021/05/31 04:16:42;;;;;;;5.65;3.90;;;10.20;99.90;;;;;;4981633;28;20038;-72
2021/05/31 04:19:11;;;;;;;7.28;3.70;;;10.20;99.90;;;;;;4970476;28;20118;-71
2021/05/31 04:21:37;;;;;;;5.90;3.75;;;10.20;99.90;;;;;;4984213;28;20030;-71
2021/05/31 04:24:03;;;;;;;5.93;3.40;;;10.20;99.90;;;;;;4989051;28;20038;-72
2021/05/31 04:26:32;;;;;;;6.13;3.80;;;10.10;99.90;;;;;;4985424;28;20045;-71
2021/05/31 04:28:58;;;;;;;6.07;3.72;;;10.20;99.90;;;;;;4990715;28;20049;-71
2021/05/31 04:31:26;;;;;;;6.45;3.75;;;10.20;99.90;;;;;;5006779;28;20038;-72
2021/05/31 04:33:52;;;;;;;6.10;3.60;;;10.20;99.90;;;;;;4997501;28;20051;-71
2021/05/31 04:36:18;;;;;;;6.22;3.45;;;10.20;99.90;;;;;;4990610;28;20396;-72
2021/05/31 04:38:46;;;;;;;5.75;3.40;;;10.20;99.90;;;;;;4993564;28;20030;-71
2021/05/31 04:41:14;;;;;;;6.93;4.00;;;10.20;99.90;;;;;;4994462;28;20049;-71
2021/05/31 04:43:39;;;;;;;6.55;3.83;;;10.20;99.90;;;;;;4980187;28;20341;-71
2021/05/31 04:46:07;;;;;;;6.13;3.40;;;10.20;99.90;;;;;;4990348;28;20037;-71
2021/05/31 04:48:33;;;;;;;7.05;3.80;;;10.20;99.90;;;;;;4992904;28;20064;-71
2021/05/31 04:51:01;;;;;;;5.40;3.30;;;10.20;99.90;;;;;;4997899;28;20441;-71
2021/05/31 04:53:30;;;;;;;6.15;3.78;;;10.20;99.90;;;;;;5012250;28;20029;-72
2021/05/31 04:55:56;;;;;;;6.75;3.72;;;10.30;99.90;;;;;;4981414;28;20138;-71
2021/05/31 04:58:23;;;;;;;6.93;3.97;;;10.30;99.90;;;;;;4978236;28;20037;-72
2021/05/31 05:00:49;;;;;;;5.60;3.35;;;10.30;99.90;;;;;;4989140;28;20045;-71
2021/05/31 05:03:17;;;;;;;6.15;3.58;;;10.40;99.90;;;;;;4989141;28;20073;-72
2021/05/31 05:05:46;;;;;;;5.70;3.47;;;10.40;99.90;;;;;;4981919;28;20526;-71
2021/05/31 05:08:11;;;;;;;6.20;3.47;;;10.40;99.90;;;;;;4984586;28;20542;-71
2021/05/31 05:10:37;;;;;;;5.38;3.60;;;10.40;99.90;;;;;;4977523;28;20117;-72
2021/05/31 05:13:06;;;;;;;7.03;3.65;;;10.40;99.90;;;;;;4979067;28;20704;-72
2021/05/31 05:15:31;;;;;;;6.22;3.58;;;10.50;99.90;;;;;;4974764;28;20044;-71
2021/05/31 05:17:57;;;;;;;6.35;3.45;;;10.60;99.90;;;;;;4972366;28;20038;-72
2021/05/31 05:20:24;;;;;;;6.88;3.80;;;10.60;99.90;;;;;;4978629;28;20035;-72
2021/05/31 05:22:50;;;;;;;6.38;3.75;;;10.70;99.90;;;;;;4978412;28;20452;-73
2021/05/31 05:25:16;;;;;;;5.25;3.25;;;10.70;99.90;;;;;;4988954;28;20042;-72
2021/05/31 05:27:44;;;;;;;5.95;3.50;;;10.80;99.90;;;;;;4980204;28;20038;-72
2021/05/31 05:30:12;;;;;;;6.00;3.88;;;10.80;99.90;;;;;;4988792;28;20476;-72
2021/05/31 05:32:41;;;;;;;5.95;3.50;;;10.90;99.90;;;;;;4977935;28;20030;-72
2021/05/31 05:35:19;;;;;;;5.65;3.60;;;10.90;99.90;;;;;;4988437;28;20467;-72
2021/05/31 05:38:01;;;;;;;5.28;3.53;;;11.00;99.90;;;;;;4977094;28;20121;-72
2021/05/31 05:46:01;;;;;;;6.85;4.22;;;11.10;99.90;;;;;;4978196;28;20146;-72
2021/05/31 05:48:30;;;;;;;6.28;4.00;;;11.20;99.90;;;;;;4978022;28;20053;-72
2021/05/31 05:51:07;;;;;;;6.45;3.92;;;11.20;99.90;;;;;;4982666;28;20554;-72
2021/05/31 05:53:42;;;;;;;5.70;3.60;;;11.30;99.90;;;;;;4977640;28;20034;-72
2021/05/31 05:56:18;;;;;;;5.78;3.75;;;11.40;99.90;;;;;;4977020;28;20504;-72
2021/05/31 05:58:53;;;;;;;8.25;4.03;;;11.50;99.90;;;;;;4987671;28;20050;-72
2021/05/31 06:01:19;;;;;;;8.23;4.43;;;11.50;99.90;;;;;;4991052;28;20055;-72
2021/05/31 06:03:53;;;;;;;5.63;3.95;;;11.60;99.90;;;;;;4980365;28;20034;-72
2021/05/31 06:06:22;;;;;;;4.95;3.25;;;11.60;99.90;;;;;;4986890;28;20035;-72
2021/05/31 06:08:48;;;;;;;6.43;4.15;;;11.70;99.90;;;;;;4988373;28;20380;-72
2021/05/31 06:11:19;;;;;;;6.05;4.00;;;11.70;99.90;;;;;;4995239;28;20035;-70
2021/05/31 06:13:51;;;;;;;7.00;4.10;;;11.80;99.90;;;;;;4988739;28;20038;-71
2021/05/31 06:16:16;;;;;;;8.23;4.32;;;11.80;99.90;;;;;;4980310;28;20495;-72
2021/05/31 06:18:45;;;;;;;7.45;4.10;;;11.90;99.90;;;;;;4991016;28;20038;-72
2021/05/31 06:21:10;;;;;;;6.25;4.10;;;11.90;99.90;;;;;;4989364;28;20351;-72
2021/05/31 06:23:36;;;;;;;5.82;3.75;;;12.00;99.90;;;;;;4981111;28;20101;-70
2021/05/31 06:26:02;;;;;;;8.15;5.60;;;12.00;99.90;;;;;;5005023;28;20458;-70
2021/05/31 06:28:30;;;;;;;12.10;7.75;;;12.10;99.90;;;;;;4979787;28;20435;-71
2021/05/31 06:30:58;;;;;;;9.23;6.40;;;12.20;99.90;;;;;;4989966;28;20058;-72
2021/05/31 06:33:24;;;;;;;7.63;5.00;;;12.20;99.90;;;;;;4988486;28;20065;-72
2021/05/31 06:35:52;;;;;;;7.60;4.93;;;12.30;99.90;;;;;;4997019;28;20062;-71
2021/05/31 06:38:18;;;;;;;7.07;4.88;;;12.40;99.90;;;;;;4990492;28;20025;-71
2021/05/31 06:40:48;;;;;;;8.65;5.10;;;12.50;99.90;;;;;;4989799;28;20375;-71
2021/05/31 06:43:14;;;;;;;9.18;6.10;;;12.50;99.90;;;;;;4986397;28;20075;-72
2021/05/31 06:45:42;;;;;;;8.20;5.28;;;12.60;99.90;;;;;;4989217;28;20026;-71
2021/05/31 06:48:11;;;;;;;7.05;4.30;;;12.70;99.90;;;;;;4989577;28;20038;-72
2021/05/31 06:50:37;;;;;;;8.93;4.20;;;12.70;99.90;;;;;;4988261;28;20034;-72
2021/05/31 06:53:03;;;;;;;7.55;4.40;;;12.80;99.90;;;;;;4994584;28;20040;-72
2021/05/31 06:55:30;;;;;;;7.43;4.45;;;12.80;99.90;;;;;;4991431;28;20030;-72
2021/05/31 06:58:01;;;;;;;6.88;4.72;;;12.90;99.90;;;;;;4986959;28;20026;-72
2021/05/31 07:00:27;;;;;;;7.43;4.40;;;13.00;99.90;;;;;;4988679;28;20034;-71
2021/05/31 07:02:53;;;;;;;8.15;4.47;;;13.00;99.90;;;;;;4981204;28;20038;-72
2021/05/31 07:05:18;;;;;;;7.30;4.55;;;13.10;99.90;;;;;;4996736;28;20037;-71
2021/05/31 07:07:44;;;;;;;8.05;4.22;;;13.20;99.90;;;;;;4985532;28;20398;-72
2021/05/31 07:10:14;;;;;;;7.90;4.45;;;13.20;99.90;;;;;;4986012;28;20030;-72
2021/05/31 07:12:40;;;;;;;9.93;4.47;;;13.30;99.90;;;;;;4982919;28;20022;-71
2021/05/31 07:15:06;;;;;;;7.80;3.80;;;13.30;99.90;;;;;;4996294;28;20725;-71
2021/05/31 07:17:37;;;;;;;6.68;4.35;;;13.50;99.90;;;;;;4986180;28;20041;-72
2021/05/31 07:20:11;;;;;;;5.85;4.15;;;13.60;99.90;;;;;;4987146;28;20026;-71
2021/05/31 07:22:37;;;;;;;7.30;4.03;;;13.60;99.90;;;;;;4994772;28;20038;-72
2021/05/31 07:25:05;;;;;;;8.48;4.20;;;13.70;99.90;;;;;;4988582;28;20033;-71
2021/05/31 07:27:33;;;;;;;6.63;4.18;;;13.80;99.90;;;;;;4987321;28;20038;-71
2021/05/31 07:29:58;;;;;;;7.88;4.13;;;13.90;99.90;;;;;;4985379;28;20034;-72
2021/05/31 07:32:27;;;;;;;5.60;3.80;;;14.00;99.90;;;;;;4985792;28;20653;-72
2021/05/31 07:34:54;;;;;;;6.68;3.70;;;14.10;99.90;;;;;;4976443;28;20037;-72
2021/05/31 07:37:20;;;;;;;4.78;3.20;;;14.20;99.90;;;;;;4987350;28;20033;-72
2021/05/31 07:39:48;;;;;;;5.75;3.40;;;14.20;99.90;;;;;;4994861;28;20036;-71
2021/05/31 07:42:16;;;;;;;5.25;3.00;;;14.40;97.90;;;;;;4988049;28;20022;-72
2021/05/31 07:44:41;;;;;;;5.70;3.40;;;14.60;99.90;;;;;;4989081;28;20117;-72
2021/05/31 07:47:07;;;;;;;9.65;7.43;;;14.80;99.90;;;;;;4986188;28;20085;-70
2021/05/31 07:49:33;;;;;;;9.02;6.30;;;15.00;99.90;;;;;;4997389;28;20026;-71
2021/05/31 07:52:08;;;;;;;14.57;10.65;;;15.30;99.90;;;;;;4985101;28;20026;-72
2021/05/31 07:54:36;;;;;;;6.15;3.70;;;15.60;99.90;;;;;;4981275;28;20163;-71
2021/05/31 07:57:02;;;;;;;7.43;3.60;;;15.80;98.50;;;;;;4988426;28;20073;-72
2021/05/31 07:59:27;;;;;;;5.50;3.38;;;16.00;99.90;;;;;;4987597;28;20555;-71
2021/05/31 08:01:55;;;;;;;6.95;3.30;;;16.30;95.60;;;;;;4989565;28;20176;-72
2021/05/31 08:04:21;;;;;;;7.00;3.20;;;16.50;92.50;;;;;;4994018;28;20093;-71
2021/05/31 08:06:49;;;;;;;5.93;3.17;;;16.70;90.70;;;;;;4977061;28;20054;-71
2021/05/31 08:09:17;;;;;;;5.05;2.90;;;16.90;87.80;;;;;;4989151;28;20035;-71
2021/05/31 08:11:48;;;;;;;6.43;2.95;;;17.10;89.30;;;;;;4988386;28;20061;-72
2021/05/31 08:14:13;;;;;;;5.45;2.75;;;17.30;93.00;;;;;;4984777;28;20104;-71
2021/05/31 08:16:46;;;;;;;5.82;3.00;;;17.60;93.60;;;;;;4982555;28;20046;-71
2021/05/31 08:19:16;;;;;;;7.25;2.88;;;17.80;91.20;;;;;;4985834;28;20062;-71
2021/05/31 08:21:43;;;;;;;5.05;3.10;;;18.10;88.90;;;;;;4990520;28;20124;-71
2021/05/31 08:24:09;;;;;;;8.00;3.20;;;18.30;93.10;;;;;;4998190;28;20026;-72
2021/05/31 08:26:37;;;;;;;4.68;3.13;;;18.40;93.30;;;;;;5004216;28;20018;-71
2021/05/31 08:29:07;;;;;;;5.20;3.17;;;18.60;86.30;;;;;;4990326;28;20423;-71
2021/05/31 08:31:35;;;;;;;6.72;3.58;;;18.70;81.10;;;;;;4995906;28;20026;-71
2021/05/31 08:34:01;;;;;;;20.13;15.38;;;18.80;86.20;;;;;;4990552;28;20419;-71
2021/05/31 08:36:28;;;;;;;8.18;5.15;;;18.90;85.90;;;;;;4991611;28;20038;-71
2021/05/31 08:38:59;;;;;;;4.85;3.08;;;19.10;85.30;;;;;;4990087;28;20038;-71
2021/05/31 08:41:28;;;;;;;5.40;3.15;;;19.20;81.10;;;;;;4991549;28;20034;-71
2021/05/31 08:43:54;;;;;;;4.93;2.92;;;19.30;78.40;;;;;;4998448;28;20037;-71
2021/05/31 08:46:20;;;;;;;5.28;3.10;;;19.40;78.90;;;;;;4989436;28;20026;-72
2021/05/31 08:48:45;;;;;;;5.55;2.90;;;19.50;75.40;;;;;;4992117;28;20034;-71
2021/05/31 08:51:11;;;;;;;6.13;3.00;;;19.60;78.80;;;;;;4980219;28;20033;-71
2021/05/31 08:53:37;;;;;;;6.90;3.30;;;19.80;81.10;;;;;;5009773;28;20092;-71
2021/05/31 08:56:03;;;;;;;6.28;2.95;;;19.80;78.80;;;;;;4995961;28;20527;-71
2021/05/31 08:58:29;;;;;;;5.10;2.80;;;20.00;79.80;;;;;;4995124;28;20057;-71
2021/05/31 09:00:54;;;;;;;5.28;2.80;;;20.10;76.80;;;;;;4973527;28;20491;-70
2021/05/31 09:03:23;;;;;;;6.95;3.03;;;20.20;72.40;;;;;;4989416;28;20129;-71
2021/05/31 09:05:49;;;;;;;6.63;3.20;;;20.30;73.10;;;;;;4991197;28;20087;-72
2021/05/31 09:08:19;;;;;;;6.10;2.90;;;20.40;77.40;;;;;;4979155;28;20452;-71
2021/05/31 09:10:57;;;;;;;5.50;2.83;;;20.50;69.70;;;;;;4991015;28;20051;-71
2021/05/31 09:13:29;;;;;;;6.30;2.90;;;20.50;68.10;;;;;;4995630;28;20104;-71
2021/05/31 09:16:12;;;;;;;6.75;2.92;;;20.60;68.80;;;;;;4990441;28;20041;-71
2021/05/31 09:18:38;;;;;;;6.07;2.88;;;20.70;65.80;;;;;;4991978;28;20033;-72
2021/05/31 09:21:21;;;;;;;4.57;2.80;;;20.70;69.40;;;;;;4990543;28;20033;-72
2021/05/31 09:23:50;;;;;;;5.28;2.72;;;20.90;68.00;;;;;;4990697;28;20092;-71
2021/05/31 09:26:18;;;;;;;6.10;2.88;;;20.90;68.20;;;;;;4987529;28;20133;-72
2021/05/31 09:28:57;;;;;;;4.28;2.75;;;20.90;66.90;;;;;;4997940;28;20030;-71
2021/05/31 09:31:23;;;;;;;4.95;2.90;;;21.00;68.10;;;;;;4986574;28;20117;-71
2021/05/31 09:34:03;;;;;;;4.68;2.75;;;21.00;66.10;;;;;;4994310;28;20110;-71
2021/05/31 09:36:32;;;;;;;6.28;2.92;;;21.00;64.10;;;;;;4988220;28;20062;-71
2021/05/31 09:38:57;;;;;;;5.05;3.20;;;21.10;64.80;;;;;;4991494;28;20031;-71
2021/05/31 09:41:27;;;;;;;6.32;2.90;;;21.10;64.60;;;;;;4996382;28;20579;-71
2021/05/31 09:43:57;;;;;;;5.93;3.15;;;21.10;66.30;;;;;;4992982;28;20033;-71
2021/05/31 09:46:44;;;;;;;5.80;2.90;;;21.10;65.20;;;;;;4994854;28;20026;-71
2021/05/31 09:49:20;;;;;;;5.38;3.10;;;21.20;69.30;;;;;;4992367;28;20023;-72
2021/05/31 09:52:17;;;;;;;5.03;3.03;;;21.20;64.70;;;;;;4988548;28;20046;-72
2021/05/31 09:54:44;;;;;;;4.88;3.25;;;21.30;68.80;;;;;;4985418;28;20041;-71
2021/05/31 09:57:20;;;;;;;5.32;3.03;;;21.30;66.00;;;;;;4988503;28;20018;-71
2021/05/31 09:59:54;;;;;;;5.88;3.20;;;21.40;62.50;;;;;;4990660;28;20022;-70
2021/05/31 10:08:17;;;;;;;5.30;2.70;;;21.40;63.80;;;;;;4997255;28;20410;-72
2021/05/31 10:10:44;;;;;;;5.10;3.30;;;21.40;63.10;;;;;;5004178;28;20034;-71
2021/05/31 10:13:12;;;;;;;5.05;2.90;;;21.40;63.70;;;;;;4988176;28;20030;-71
2021/05/31 10:15:42;;;;;;;6.97;3.10;;;21.40;66.40;;;;;;4991560;28;20035;-70
2021/05/31 10:18:14;;;;;;;5.97;2.90;;;21.40;63.30;;;;;;4988735;28;20041;-71
2021/05/31 10:20:43;;;;;;;6.22;3.13;;;21.40;64.70;;;;;;4991877;28;20046;-71
2021/05/31 10:23:10;;;;;;;6.03;3.03;;;21.50;69.40;;;;;;4988494;28;20046;-71
2021/05/31 10:25:41;;;;;;;9.18;3.13;;;21.70;68.70;;;;;;4994282;28;20022;-71
2021/05/31 10:28:14;;;;;;;7.47;2.88;;;21.80;64.50;;;;;;4995089;28;20026;-72
2021/05/31 10:30:44;;;;;;;5.03;2.90;;;21.80;62.10;;;;;;4988090;28;20061;-73
2021/05/31 10:33:12;;;;;;;4.93;2.80;;;21.90;65.50;;;;;;4993863;28;20036;-71
2021/05/31 10:35:40;;;;;;;6.28;3.13;;;21.90;61.60;;;;;;4985376;28;20077;-72
2021/05/31 10:38:13;;;;;;;5.88;2.90;;;22.00;63.50;;;;;;4985707;28;20445;-71
2021/05/31 10:40:43;;;;;;;5.13;3.03;;;22.00;61.80;;;;;;4973720;28;20129;-71
2021/05/31 10:43:10;;;;;;;7.45;3.08;;;22.00;63.90;;;;;;4988651;28;20109;-71
2021/05/31 10:45:36;;;;;;;4.53;2.88;;;22.10;65.00;;;;;;4986949;28;20030;-71
2021/05/31 10:48:19;;;;;;;6.35;2.90;;;22.20;62.80;;;;;;4988108;28;20088;-71
2021/05/31 10:51:01;;;;;;;5.10;2.88;;;22.30;65.70;;;;;;4988203;28;20514;-71
2021/05/31 10:53:31;;;;;;;5.03;2.90;;;22.40;62.00;;;;;;4991998;28;20026;-70
2021/05/31 10:56:03;;;;;;;5.25;2.92;;;22.40;60.90;;;;;;4987123;28;20031;-71
2021/05/31 10:58:35;;;;;;;5.63;2.92;;;22.40;61.80;;;;;;4988211;28;20030;-71
2021/05/31 11:01:04;;;;;;;6.15;2.70;;;22.40;58.40;;;;;;4988151;28;20073;-70
2021/05/31 11:03:30;;;;;;;4.72;2.80;;;22.60;62.30;;;;;;4993537;28;20121;-71
2021/05/31 11:05:56;;;;;;;4.90;2.75;;;22.50;60.20;;;;;;4992227;28;20030;-71
2021/05/31 11:08:29;;;;;;;6.25;2.80;;;22.60;61.30;;;;;;4988327;28;20045;-71
2021/05/31 11:10:59;;;;;;;5.70;2.80;;;22.70;62.60;;;;;;4991613;28;20120;-72
2021/05/31 11:13:25;;;;;;;5.03;2.97;;;22.80;62.90;;;;;;4987991;28;20027;-72
2021/05/31 11:16:03;;;;;;;5.10;2.80;;;22.80;61.20;;;;;;4971215;28;20615;-71
2021/05/31 11:18:33;;;;;;;5.80;2.90;;;23.00;61.00;;;;;;4984943;28;20031;-71
2021/05/31 11:21:00;;;;;;;4.80;2.70;;;23.10;61.80;;;;;;4989875;28;20030;-71
2021/05/31 11:23:29;;;;;;;4.68;2.80;;;23.20;61.00;;;;;;4989085;28;20046;-72
2021/05/31 11:25:57;;;;;;;6.03;2.95;;;23.30;62.20;;;;;;4994020;28;20109;-72
2021/05/31 11:28:27;;;;;;;6.45;2.90;;;23.40;60.40;;;;;;4985787;28;20050;-71
2021/05/31 11:30:53;;;;;;;5.60;2.90;;;23.50;61.30;;;;;;4989269;28;20027;-71
2021/05/31 11:33:19;;;;;;;4.70;3.00;;;23.50;63.00;;;;;;4990508;28;20101;-71
2021/05/31 11:35:46;;;;;;;5.50;2.90;;;23.70;58.80;;;;;;4989905;28;20018;-71
2021/05/31 11:38:18;;;;;;;5.47;2.70;;;23.70;55.80;;;;;;4979846;28;20164;-72
2021/05/31 11:40:44;;;;;;;4.35;2.80;;;23.70;60.20;;;;;;4986728;28;20463;-72
2021/05/31 11:43:13;;;;;;;4.35;2.70;;;23.90;58.90;;;;;;4989592;28;20030;-72
2021/05/31 11:45:39;;;;;;;6.15;2.88;;;24.00;61.20;;;;;;4986627;28;20464;-72
2021/05/31 11:48:09;;;;;;;5.07;2.67;;;24.10;60.80;;;;;;4990784;28;20146;-72
2021/05/31 11:50:40;;;;;;;5.50;2.75;;;24.30;57.80;;;;;;4994969;28;20064;-72
2021/05/31 11:53:07;;;;;;;6.60;2.80;;;24.40;57.90;;;;;;4986656;28;20054;-71
2021/05/31 11:55:35;;;;;;;4.38;2.50;;;24.50;58.70;;;;;;4989285;28;20037;-72
2021/05/31 11:58:01;;;;;;;4.80;2.83;;;24.60;59.40;;;;;;4992591;28;20045;-72
2021/05/31 12:00:34;;;;;;;5.57;2.70;;;24.60;59.70;;;;;;4994360;28;20026;-72
2021/05/31 12:03:00;;;;;;;6.03;3.10;;;24.80;61.90;;;;;;4984422;28;20045;-71
2021/05/31 12:05:35;;;;;;;4.03;2.80;;;24.90;57.80;;;;;;4987554;28;20384;-71
2021/05/31 12:08:12;;;;;;;4.35;2.78;;;24.90;58.60;;;;;;4986791;28;20037;-71
2021/05/31 12:10:42;;;;;;;5.68;2.97;;;24.80;56.30;;;;;;4988055;28;20026;-71
2021/05/31 12:13:08;;;;;;;5.00;2.80;;;24.80;52.70;;;;;;4984690;28;20034;-71
2021/05/31 12:15:38;;;;;;;4.95;2.80;;;24.70;54.80;;;;;;4992374;28;20037;-71
2021/05/31 12:18:09;;;;;;;6.07;3.00;;;24.60;54.30;;;;;;4986821;28;20033;-71
2021/05/31 12:20:35;;;;;;;5.80;2.70;;;24.50;53.50;;;;;;4989263;28;20081;-72
2021/05/31 12:23:01;;;;;;;5.30;2.80;;;24.60;58.20;;;;;;4988634;28;22020;-71
2021/05/31 12:25:32;;;;;;;4.80;2.60;;;24.60;55.60;;;;;;4988353;28;20106;-72
2021/05/31 12:28:05;;;;;;;5.82;2.50;;;24.70;52.60;;;;;;4992835;28;20527;-71
2021/05/31 12:30:35;;;;;;;4.55;2.80;;;24.70;56.20;;;;;;5003056;28;20460;-71
2021/05/31 12:33:11;;;;;;;4.50;2.53;;;24.80;56.50;;;;;;4990131;28;20046;-71
2021/05/31 12:35:40;;;;;;;5.00;2.80;;;24.90;55.60;;;;;;4992385;28;20049;-72
2021/05/31 12:38:05;;;;;;;4.68;2.80;;;25.10;57.70;;;;;;4979052;28;20038;-72
2021/05/31 12:40:38;;;;;;;4.80;2.55;;;25.20;56.70;;;;;;4986389;28;20493;-71
2021/05/31 12:43:04;;;;;;;5.13;3.40;;;25.20;53.40;;;;;;4985527;28;20033;-72
2021/05/31 12:45:30;;;;;;;4.57;2.60;;;25.20;53.80;;;;;;5000936;28;20038;-71
2021/05/31 12:47:56;;;;;;;4.68;2.80;;;25.20;54.00;;;;;;4993292;28;20040;-72
2021/05/31 12:50:26;;;;;;;5.00;2.80;;;25.20;55.00;;;;;;4979553;28;20041;-71
2021/05/31 12:52:51;;;;;;;4.80;2.58;;;25.30;55.40;;;;;;4992253;28;20487;-72
2021/05/31 12:55:24;;;;;;;5.18;2.75;;;25.30;53.60;;;;;;4983694;28;20484;-71
2021/05/31 12:57:52;;;;;;;5.60;2.75;;;25.40;55.50;;;;;;4987089;28;20035;-71
2021/05/31 13:00:20;;;;;;;4.78;2.70;;;25.40;53.50;;;;;;4989339;28;20030;-72
2021/05/31 13:02:58;;;;;;;6.88;2.85;;;25.40;55.10;;;;;;4987180;28;20641;-71
2021/05/31 13:05:28;;;;;;;5.93;2.80;;;25.40;54.40;;;;;;4977907;28;20038;-71
2021/05/31 13:07:58;;;;;;;6.95;2.70;;;25.50;53.30;;;;;;5007613;28;20053;-72
2021/05/31 13:10:28;;;;;;;5.57;2.78;;;25.60;52.90;;;;;;4993062;28;20073;-72
2021/05/31 13:13:04;;;;;;;4.35;2.45;;;25.60;53.10;;;;;;4990191;28;21887;-71